createdAt,value
2019-02-15T00:02:38.597Z,16.47
2019-02-15T00:07:42.643Z,22.60
2019-02-15T00:12:46.659Z,22.60
2019-02-15T00:18:09.620Z,25.10
2019-02-15T00:23:13.646Z,16.43
2019-02-15T00:28:17.653Z,23.83
2019-02-15T00:33:21.686Z,18.53
2019-02-15T00:38:25.687Z,20.10
2019-02-15T00:43:29.809Z,17.67
2019-02-15T00:48:33.826Z,20.30
2019-02-15T00:53:52.629Z,20.03
2019-02-15T00:59:14.446Z,24.13
2019-02-15T01:04:36.447Z,23.17
2019-02-15T01:09:50.899Z,21.00
2019-02-15T01:14:54.915Z,28.97
2019-02-15T01:19:58.932Z,25.60
2019-02-15T01:25:02.942Z,31.60
2019-02-15T01:30:26.052Z,19.67
2019-02-15T01:35:49.019Z,22.63
2019-02-15T01:41:00.615Z,24.53
2019-02-15T01:46:11.633Z,24.90
2019-02-15T01:51:15.662Z,33.40
2019-02-15T01:56:19.829Z,19.63
2019-02-15T02:01:26.009Z,21.60
2019-02-15T02:06:30.007Z,32.13
2019-02-15T02:11:34.021Z,19.73
2019-02-15T02:16:38.044Z,18.67
2019-02-15T02:21:42.055Z,28.13
2019-02-15T02:26:46.060Z,18.50
2019-02-15T02:31:50.276Z,20.73
2019-02-15T02:36:57.983Z,22.57
2019-02-15T02:42:02.019Z,24.43
2019-02-15T02:47:06.028Z,17.40
2019-02-15T02:52:10.045Z,18.33
2019-02-15T02:57:14.057Z,20.13
2019-02-15T03:02:18.082Z,25.53
2019-02-15T03:07:22.094Z,19.00
2019-02-15T03:12:26.110Z,24.53
2019-02-15T03:17:30.478Z,24.07
2019-02-15T03:22:34.496Z,25.37
2019-02-15T03:27:38.519Z,30.03
2019-02-15T03:32:42.552Z,22.70
2019-02-15T03:38:05.513Z,23.53
2019-02-15T03:43:09.579Z,26.27
2019-02-15T03:48:13.634Z,20.47
2019-02-15T03:53:17.655Z,22.90
2019-02-15T03:58:21.681Z,23.40
2019-02-15T04:03:25.698Z,17.43
2019-02-15T04:08:29.705Z,25.53
2019-02-15T04:13:33.766Z,26.37
2019-02-15T04:18:37.803Z,19.03
2019-02-15T04:23:42.069Z,20.97
2019-02-15T04:28:46.082Z,17.07
2019-02-15T04:33:50.096Z,21.73
2019-02-15T04:38:54.116Z,26.20
2019-02-15T04:43:58.141Z,23.33
2019-02-15T04:49:02.159Z,24.57
2019-02-15T04:54:06.190Z,24.77
2019-02-15T04:59:10.214Z,19.73
2019-02-15T05:04:14.230Z,24.13
2019-02-15T05:09:18.255Z,21.73
2019-02-15T05:14:22.260Z,20.80
2019-02-15T05:19:26.289Z,21.53
2019-02-15T05:24:30.300Z,22.40
2019-02-15T05:29:34.315Z,25.80
2019-02-15T05:34:38.338Z,25.67
2019-02-15T05:39:42.519Z,22.77
2019-02-15T05:44:46.528Z,30.03
2019-02-15T05:49:50.605Z,24.83
2019-02-15T05:54:54.629Z,22.77
2019-02-15T05:59:58.677Z,27.47
2019-02-15T06:05:02.728Z,27.20
2019-02-15T06:10:07.581Z,30.30
2019-02-15T06:15:15.076Z,24.40
2019-02-15T06:20:17.429Z,38.43
2019-02-15T06:25:21.448Z,31.87
2019-02-15T06:30:25.462Z,35.70
2019-02-15T06:35:29.466Z,30.17
2019-02-15T06:40:33.524Z,23.97
2019-02-15T06:45:37.848Z,28.50
2019-02-15T06:50:41.863Z,27.80
2019-02-15T06:55:45.877Z,26.57
2019-02-15T07:01:08.098Z,38.13
2019-02-15T07:06:12.113Z,26.93
2019-02-15T07:11:16.130Z,31.47
2019-02-15T07:16:20.139Z,33.07
2019-02-15T07:21:24.145Z,32.67
2019-02-15T07:26:28.452Z,25.13
2019-02-15T07:31:32.484Z,22.93
2019-02-15T07:36:36.518Z,27.40
2019-02-15T07:41:40.554Z,28.23
2019-02-15T07:46:44.597Z,25.43
2019-02-15T07:51:48.687Z,31.20
2019-02-15T07:56:52.717Z,27.57
2019-02-15T08:02:01.873Z,26.67
2019-02-15T08:07:02.486Z,32.53
2019-02-15T08:12:06.497Z,37.33
2019-02-15T08:17:10.553Z,26.30
2019-02-15T08:22:14.578Z,25.27
2019-02-15T08:27:18.613Z,31.43
2019-02-15T08:32:22.631Z,26.70
2019-02-15T08:37:26.651Z,34.03
2019-02-15T08:42:30.701Z,35.83
2019-02-15T08:47:34.712Z,30.37
2019-02-15T08:52:38.739Z,36.47
2019-02-15T08:57:42.743Z,31.57
2019-02-15T09:02:46.773Z,25.10
2019-02-15T09:07:50.798Z,33.80
2019-02-15T09:12:54.817Z,28.73
2019-02-15T09:17:58.853Z,33.17
2019-02-15T09:23:02.870Z,28.97
2019-02-15T09:28:25.833Z,32.67
2019-02-15T09:33:29.921Z,26.67
2019-02-15T09:38:33.938Z,28.80
2019-02-15T09:43:37.955Z,26.40
2019-02-15T09:48:41.965Z,30.77
2019-02-15T09:53:45.977Z,34.90
2019-02-15T09:58:50.013Z,25.43
2019-02-15T10:03:55.301Z,35.77
2019-02-15T10:08:59.560Z,31.90
2019-02-15T10:14:03.589Z,37.63
2019-02-15T10:19:07.605Z,30.70
2019-02-15T10:24:11.619Z,26.07
2019-02-15T10:29:15.660Z,30.95
2019-02-15T10:34:19.682Z,28.60
2019-02-15T10:39:24.092Z,28.67
2019-02-15T10:44:28.152Z,32.85
2019-02-15T10:49:32.172Z,28.70
2019-02-15T10:54:36.199Z,27.85
2019-02-15T10:59:40.225Z,30.10
2019-02-15T11:04:44.667Z,35.60
2019-02-15T11:09:48.688Z,30.62
2019-02-15T11:14:52.733Z,34.85
2019-02-15T11:19:56.752Z,28.75
2019-02-15T11:25:00.589Z,28.02
2019-02-15T11:30:05.289Z,25.75
2019-02-15T11:35:10.760Z,22.52
2019-02-15T11:40:14.814Z,21.60
2019-02-15T11:45:18.844Z,15.70
2019-02-15T11:50:22.870Z,20.12
2019-02-15T11:55:26.891Z,17.57
2019-02-15T12:00:33.233Z,24.80
2019-02-15T12:05:37.266Z,16.85
2019-02-15T12:10:41.316Z,14.60
2019-02-15T12:15:45.320Z,14.28
2019-02-15T12:20:49.483Z,16.85
2019-02-15T12:25:53.512Z,18.75
2019-02-15T12:30:57.538Z,14.13
2019-02-15T12:36:01.573Z,17.17
2019-02-15T12:41:05.597Z,12.35
2019-02-15T12:46:09.638Z,14.13
2019-02-15T12:51:13.656Z,12.00
2019-02-15T12:56:17.669Z,12.58
2019-02-15T13:01:21.815Z,9.48
2019-02-15T13:06:28.661Z,9.88
2019-02-15T13:11:31.888Z,8.88
2019-02-15T13:16:35.917Z,9.85
2019-02-15T13:21:39.950Z,14.98
2019-02-15T13:26:44.022Z,9.75
2019-02-15T13:31:48.074Z,7.75
2019-02-15T13:36:52.097Z,16.12
2019-02-15T13:41:56.192Z,9.53
2019-02-15T13:47:00.222Z,15.90
2019-02-15T13:52:04.488Z,18.55
2019-02-15T13:57:08.698Z,11.95
2019-02-15T14:02:12.696Z,14.95
2019-02-15T14:07:18.637Z,15.85
2019-02-15T14:12:22.640Z,19.50
2019-02-15T14:17:26.673Z,13.05
2019-02-15T14:22:30.802Z,13.68
2019-02-15T14:27:35.761Z,22.65
2019-02-15T14:32:39.780Z,14.35
2019-02-15T14:37:43.801Z,14.55
2019-02-15T14:42:49.307Z,9.83
2019-02-15T14:47:55.305Z,12.40
2019-02-15T14:52:59.562Z,15.03
2019-02-15T14:58:03.608Z,13.32
2019-02-15T15:03:07.744Z,14.78
2019-02-15T15:08:11.767Z,9.58
2019-02-15T15:13:15.789Z,13.03
2019-02-15T15:18:19.800Z,9.13
2019-02-15T15:23:23.848Z,10.10
2019-02-15T15:28:27.871Z,11.97
2019-02-15T15:33:31.887Z,8.80
2019-02-15T15:38:35.903Z,7.20
2019-02-15T15:43:39.927Z,8.90
2019-02-15T15:48:43.961Z,11.15
2019-02-15T15:53:48.085Z,18.62
2019-02-15T15:58:52.087Z,11.50
2019-02-15T16:03:56.114Z,12.98
2019-02-15T16:09:00.137Z,11.48
2019-02-15T16:14:04.229Z,14.58
2019-02-15T16:19:08.452Z,15.90
2019-02-15T16:24:13.026Z,29.60
2019-02-15T16:29:17.014Z,20.00
2019-02-15T16:34:21.077Z,21.97
2019-02-15T16:39:25.071Z,22.10
2019-02-15T16:44:29.114Z,21.52
2019-02-15T16:49:33.137Z,19.32
2019-02-15T16:54:37.176Z,22.73
2019-02-15T16:59:41.244Z,20.17
2019-02-15T17:04:45.264Z,30.48
2019-02-15T17:09:49.300Z,38.90
2019-02-15T17:14:53.451Z,28.77
2019-02-15T17:19:57.480Z,29.15
2019-02-15T17:25:01.500Z,34.92
2019-02-15T17:30:05.869Z,35.10
2019-02-15T17:35:10.042Z,33.88
2019-02-15T17:40:14.131Z,28.52
2019-02-15T17:45:18.159Z,30.15
2019-02-15T17:50:22.200Z,36.68
2019-02-15T17:55:26.220Z,36.17
2019-02-15T18:00:31.814Z,36.13
2019-02-15T18:05:35.841Z,26.52
2019-02-15T18:10:39.936Z,32.45
2019-02-15T18:15:44.005Z,34.20
2019-02-15T18:20:48.042Z,33.63
2019-02-15T18:25:52.064Z,29.80
2019-02-15T18:30:56.174Z,44.13
2019-02-15T18:36:00.224Z,39.80
2019-02-15T18:41:13.115Z,37.70
2019-02-15T18:46:10.034Z,45.67
2019-02-15T18:51:15.047Z,39.33
2019-02-15T18:56:19.081Z,41.83
2019-02-15T19:01:23.463Z,39.57
2019-02-15T19:06:27.482Z,39.93
2019-02-15T19:11:31.533Z,41.00
2019-02-15T19:16:35.749Z,40.67
2019-02-15T19:21:39.801Z,40.97
2019-02-15T19:26:43.951Z,40.57
2019-02-15T19:31:48.087Z,43.67
2019-02-15T19:36:52.164Z,47.83
2019-02-15T19:41:56.206Z,46.67
2019-02-15T19:47:00.281Z,34.77
2019-02-15T19:52:04.328Z,32.83
2019-02-15T19:57:08.404Z,27.07
2019-02-15T20:02:12.487Z,27.67
2019-02-15T20:07:16.737Z,34.73
2019-02-15T20:12:20.892Z,34.17
2019-02-15T20:17:25.074Z,45.03
2019-02-15T20:22:29.200Z,34.43
2019-02-15T20:27:33.372Z,26.63
2019-02-15T20:32:37.540Z,41.87
2019-02-15T20:37:42.016Z,32.37
2019-02-15T20:42:46.106Z,39.03
2019-02-15T20:47:50.236Z,42.60
2019-02-15T20:52:54.259Z,45.23
2019-02-15T20:57:58.496Z,40.07
2019-02-15T21:03:02.669Z,40.07
2019-02-15T21:08:06.725Z,48.30
2019-02-15T21:13:19.979Z,48.63
2019-02-15T21:18:16.582Z,37.73
2019-02-15T21:23:20.780Z,37.40
2019-02-15T21:28:25.100Z,38.83
2019-02-15T21:33:29.149Z,36.37
2019-02-15T21:38:33.211Z,36.53
2019-02-15T21:43:37.383Z,37.23
2019-02-15T21:48:41.421Z,31.30
2019-02-15T21:53:45.486Z,34.20
2019-02-15T21:58:49.517Z,41.73
2019-02-15T22:03:53.562Z,44.77
2019-02-15T22:08:57.584Z,37.80
2019-02-15T22:14:01.608Z,40.37
2019-02-15T22:19:05.876Z,37.90
2019-02-15T22:24:09.914Z,35.43
2019-02-15T22:29:13.951Z,38.83
2019-02-15T22:34:18.008Z,39.53
2019-02-15T22:39:22.033Z,47.30
2019-02-15T22:44:26.064Z,34.33
2019-02-15T22:49:30.170Z,42.30
2019-02-15T22:54:34.215Z,30.17
2019-02-15T22:59:38.234Z,38.07
2019-02-15T23:04:42.331Z,41.97
2019-02-15T23:09:46.557Z,34.30
2019-02-15T23:14:50.573Z,32.17
2019-02-15T23:19:54.695Z,41.53
2019-02-15T23:24:58.713Z,43.37
2019-02-15T23:30:02.747Z,48.33
2019-02-15T23:35:06.775Z,42.87
2019-02-15T23:40:10.786Z,49.87
2019-02-15T23:45:14.803Z,42.47
2019-02-15T23:50:18.837Z,28.33
2019-02-15T23:55:22.866Z,28.70
